• Join FlightAware (Why Join?)
  • Login
  • US Flag 
05:01AM EST


 

Airport Tracker/Info


-or-


 

Live Flight TrackerFlight Track Log ✈ N4118B ✈ 02-May-2014 ✈ KPMP - KPMP

Flight Track Log - Related Links

Times and Time Zones

All times are in EDT time to prevent confusion due to time zone crossing. See the N4118B flight status page for this flight to view local times or setup timezone preferences in your user account.

Time Position Orientation Groundspeed Altitude Reporting Facility
EDT Latitude Longitude Course Direction KTS MPH feet Rate Location/Type
01:28PM 26.2711 -80.1489 283° West 138 159 2,800  Level Miami Center
01:29PM 26.2786 -80.1864 283° West 139 160 3,200 540 Climbing Miami Center
01:30PM 26.2944 -80.2261 294° West 136 157 3,900 600 Climbing Miami Center
01:31PM 26.3058 -80.2681 287° West 137 158 4,500 780 Climbing Miami Center
01:32PM 26.3175 -80.3078 288° West 123 142 5,500 840 Climbing Miami Center
01:33PM 26.3250 -80.3428 283° West 121 139 6,300 660 Climbing Miami Center
01:34PM 26.3219 -80.3775 264° West 119 137 6,900 720 Climbing Miami Center
01:35PM 26.2906 -80.3883 197° South 113 130 7,800 780 Climbing Miami Center
01:36PM 26.2550 -80.3917 185° South 116 133 8,700 720 Climbing Miami Center
01:37PM 26.2239 -80.3792 160° South 118 136 9,400 660 Climbing Miami Center
01:38PM 26.1950 -80.3644 155° Southeast 121 139 10,100 540 Climbing Miami Center
01:39PM 26.1619 -80.3497 158° South 124 143 10,500 180 Climbing Miami Center
01:40PM 26.1394 -80.3328 146° Southeast 117 135 10,500  Level Miami Center
01:41PM 26.1467 -80.2914 79° East 132 152 10,500  Level Miami Center
01:42PM 26.1778 -80.2969 351° North 118 136 10,500  Level Miami Center
01:43PM 26.1833 -80.3272 282° West 111 128 10,500  Level Miami Center
01:44PM 26.1661 -80.3522 72° East 104 120 10,600  Climbing Miami Center
01:45PM 26.1990 -80.2744 72° East  Level Estimated
01:45PM 26.1369 -80.3419 162° South 113 130 10,500  Level Miami Center
01:46PM 26.1483 -80.3053 71° East 133 153 10,500  Level Miami Center
01:47PM 26.1794 -80.3178 340° North 118 136 10,500  Level Miami Center
01:48PM 26.1744 -80.3500 260° West 103 119 10,500  Level Miami Center
01:49PM 26.1492 -80.3539 188° South 105 121 10,500  Level Miami Center
01:50PM 26.1289 -80.3303 134° Southeast 116 133 10,500  Level Miami Center
01:51PM 26.1547 -80.2964 50° Northeast 136 157 10,500  Level Miami Center
01:52PM 26.1817 -80.3108 334° Northwest 119 137 10,600  Climbing Miami Center
01:53PM 26.1808 -80.3433 268° West 108 124 10,600  Level Miami Center
01:54PM 26.1556 -80.3564 205° Southwest 110 127 10,600 -60 Level Miami Center
01:55PM 26.1333 -80.3281 131° Southeast 127 146 10,500  Descending Miami Center
01:56PM 26.1569 -80.2939 52° Northeast 145 167 10,600  Climbing Miami Center
01:57PM 26.1858 -80.3086 335° Northwest 120 138 10,500 -60 Descending Miami Center
01:58PM 26.1786 -80.3456 258° West 106 122 10,500  Level Miami Center
01:59PM 26.1556 -80.3564 203° Southwest 107 123 10,500  Level Miami Center
02:00PM 26.1331 -80.3328 137° Southeast 121 139 10,500 -60 Level Miami Center
02:01PM 26.1567 -80.3033 48° Northeast 136 157 10,400 -120 Descending Miami Center
02:02PM 26.1792 -80.3247 320° Northwest 113 130 10,300  Descending Miami Center
02:03PM 26.1661 -80.3522 242° Southwest 102 117 10,400  Climbing Miami Center
02:04PM 26.1411 -80.3467 169° South 106 122 10,400  Level Miami Center
02:05PM 26.1397 -80.3119 93° East 128 147 10,400  Level Miami Center
02:06PM 26.1692 -80.3128 359° North 124 143 10,400  Level Miami Center
02:07PM 26.1767 -80.3408 287° West 103 119 10,500  Climbing Miami Center
02:08PM 26.1514 -80.3539 205° Southwest 102 117 10,500  Level Miami Center
02:09PM 26.1333 -80.3281 128° Southeast 121 139 10,500  Level Miami Center
02:11PM 26.1528 -80.2986 54° Northeast 129 148 10,500  Level Miami Center
02:11PM 26.1794 -80.3108 338° Northwest 118 136 10,500  Level Miami Center
02:12PM 26.1850 -80.3433 281° West 96 110 10,500  Level Miami Center
02:13PM 26.1575 -80.3564 203° Southwest 102 117 10,500  Level Miami Center
02:14PM 26.1350 -80.3419 150° Southeast 113 130 10,500  Level Miami Center
02:15PM 26.1378 -80.3072 85° East 127 146 10,500  Level Miami Center
02:16PM 26.1694 -80.2989 13° North 120 138 10,500  Level Miami Center
02:17PM 26.1833 -80.3247 301° West 107 123 10,500  Level Miami Center
02:18PM 26.1681 -80.3522 238° Southwest 100 115 10,500  Level Miami Center
02:20PM 26.1369 -80.3444 167° South 105 121 10,500 -60 Level Miami Center
02:21PM 26.1397 -80.3119 85° East 126 145 10,400  Descending Miami Center
02:22PM 26.1714 -80.3061 North 116 133 10,500  Climbing Miami Center
02:23PM 26.1769 -80.3339 283° West 98 113 10,400  Descending Miami Center
02:24PM 26.1575 -80.3611 231° Southwest 100 115 10,500  Climbing Miami Center
02:24PM 26.1350 -80.3442 146° Southeast 109 125 10,500  Level Miami Center
02:26PM 26.1419 -80.3075 78° East 124 143 10,500  Level Miami Center
02:27PM 26.1733 -80.3083 359° North 118 136 10,600  Climbing Miami Center
02:27PM 26.1769 -80.3361 278° West 99 114 10,500 -60 Descending Miami Center
02:28PM 26.1514 -80.3494 205° Southwest 100 115 10,500  Level Miami Center
02:29PM 26.1311 -80.3303 140° Southeast 117 135 10,500  Level Miami Center
02:32PM 26.1733 -80.3106 59° Northeast 114 131 10,600  Climbing Miami Center
02:33PM 26.1725 -80.3408 268° West 100 115 10,600  Level Miami Center
02:34PM 26.1433 -80.3422 182° South 112 129 10,600  Level Miami Center
02:35PM 26.1358 -80.3097 104° East 131 151 10,600 -60 Level Miami Center
02:36PM 26.1694 -80.2967 19° North 134 154 10,500 -60 Descending Miami Center
02:37PM 26.1833 -80.3247 299° West 114 131 10,500  Level Miami Center
02:38PM 26.1642 -80.3428 220° Southwest 101 116 10,500  Level Miami Center
02:39PM 26.1347 -80.3467 187° South 107 123 10,600  Climbing Miami Center
02:40PM 26.1358 -80.3050 88° East 138 159 10,600  Level Miami Center
02:41PM 26.1614 -80.2803 41° Northeast 137 158 10,600  Level Miami Center
02:42PM 26.1994 -80.2675 17° North 130 150 10,600  Level Miami Center
02:43PM 26.2092 -80.2956 291° West 112 129 10,600 -60 Level Miami Center
02:44PM 26.1856 -80.3250 228° Southwest 113 130 10,500 -60 Descending Miami Center
02:45PM 26.1639 -80.3497 226° Southwest 114 131 10,500  Level Miami Center
02:46PM 26.1372 -80.3350 154° Southeast 126 145 10,500  Level Miami Center
02:47PM 26.1381 -80.2958 89° East 136 157 10,600  Climbing Miami Center
02:48PM 26.1756 -80.3039 349° North 132 152 10,500 -60 Descending Miami Center
02:49PM 26.1769 -80.3339 273° West 108 124 10,500  Level Miami Center
02:50PM 26.1475 -80.3447 198° South 111 128 10,500  Level Miami Center
02:51PM 26.1314 -80.3186 124° Southeast 133 153 10,500 -60 Level Miami Center
02:52PM 26.1611 -80.2942 36° Northeast 130 150 10,400 -60 Descending Miami Center
02:53PM 26.1817 -80.3131 320° Northwest 118 136 10,400  Level Miami Center
02:54PM 26.1725 -80.3453 252° West 106 122 10,500  Climbing Miami Center
02:55PM 26.1453 -80.3469 183° South 112 129 10,500 -60 Level Miami Center
02:56PM 26.1356 -80.3119 107° East 135 155 10,400 -60 Descending Miami Center
02:57PM 26.1672 -80.2989 20° North 126 145 10,400  Level Miami Center
02:58PM 26.1792 -80.3269 295° West 106 122 10,400  Level Miami Center
02:59PM 26.1575 -80.3542 228° Southwest 106 122 10,400  Level Miami Center
03:00PM 26.1286 -80.3442 163° South 121 139 10,400  Level Miami Center
03:01PM 26.1358 -80.3097 77° East 126 145 10,400  Level Miami Center
03:02PM 26.1647 -80.3219 339° North 110 127 10,400  Level Miami Center
03:03PM 26.1431 -80.3467 226° Southwest 107 123 10,400  Level Miami Center
03:04PM 26.1225 -80.3369 157° South 113 130 10,500  Climbing Miami Center
03:05PM 26.1397 -80.3144 50° Northeast 127 146 10,400 -60 Descending Miami Center
03:06PM 26.1622 -80.3403 314° West 101 116 10,400  Level Miami Center
03:07PM 26.1347 -80.3511 199° South 104 120 10,400  Level Miami Center
03:08PM 26.1250 -80.3231 111° Southeast 129 148 10,400 -60 Level Miami Center
03:09PM 26.1542 -80.3264 354° North 111 128 10,300 -60 Descending Miami Center
03:10PM 26.1492 -80.3539 259° West 110 127 10,300  Level Miami Center
03:12PM 26.1289 -80.3303 134° Southeast 122 140 10,400  Climbing Miami Center
03:13PM 26.1547 -80.3056 41° Northeast 125 144 10,400  Level Miami Center
03:14PM 26.1750 -80.3247 320° Northwest 107 123 10,400  Level Miami Center
03:14PM 26.1619 -80.3472 237° Southwest 98 113 10,400  Level Miami Center
03:15PM 26.1367 -80.3558 197° South 104 120 10,500  Climbing Miami Center
03:16PM 26.1228 -80.3253 117° Southeast 130 150 10,500 -60 Level Miami Center
03:17PM 26.1544 -80.3147 17° North 125 144 10,400 -60 Descending Miami Center
03:19PM 26.1558 -80.3472 273° West 108 124 10,400  Level Miami Center
03:20PM 26.1325 -80.3603 207° Southwest 110 127 10,500 60 Climbing Miami Center
03:21PM 26.1100 -80.3411 143° Southeast 136 157 10,600  Climbing Miami Center
03:22PM 26.1303 -80.3581 323° Northwest 115 132 10,500  Descending Miami Center
03:23PM 26.1422 -80.3883 294° West 114 131 10,600 60 Climbing Miami Center
03:24PM 26.1539 -80.4236 290° West 114 131 10,700  Climbing Miami Center
03:25PM 26.1428 -80.4508 246° West 118 136 10,700  Level Miami Center
03:26PM 26.1328 -80.4297 118° Southeast 140 161 10,700  Level Miami Center
03:27PM 26.1683 -80.4331 355° North 132 152 10,700  Level Miami Center
03:28PM 26.1992 -80.4503 333° Northwest 127 146 10,700 -120 Level Miami Center
03:29PM 26.1842 -80.4614 214° Southwest 127 146 10,500 -120 Descending Miami Center
03:30PM 26.1956 -80.4294 68° East 135 155 10,500  Level Miami Center
03:31PM 26.2292 -80.4233 North 127 146 10,500  Level Miami Center
03:32PM 26.2472 -80.4542 303° West 118 136 10,500 -60 Level Miami Center
03:33PM 26.2547 -80.4867 284° West 106 122 10,400 -60 Descending Miami Center
03:34PM 26.2319 -80.4767 159° South 128 147 10,400  Level Miami Center
03:35PM 26.2614 -80.4639 21° North 130 150 10,400  Level Miami Center